sensor_id;sensor_type;location;lat;lon;timestamp;pressure;altitude;pressure_sealevel;temperature;humidity
71504;BME280;59323;50.874;7.028;2023-02-04T00:01:31;102786.31;;;8.16;84.76
71504;BME280;59323;50.874;7.028;2023-02-04T00:03:56;102792.81;;;8.15;85.06
71504;BME280;59323;50.874;7.028;2023-02-04T00:06:21;102793.91;;;8.14;84.86
71504;BME280;59323;50.874;7.028;2023-02-04T00:08:47;102791.00;;;8.10;85.34
71504;BME280;59323;50.874;7.028;2023-02-04T00:11:12;102788.00;;;8.12;84.86
71504;BME280;59323;50.874;7.028;2023-02-04T00:13:37;102793.50;;;8.07;84.98
71504;BME280;59323;50.874;7.028;2023-02-04T00:16:03;102804.91;;;8.04;85.17
71504;BME280;59323;50.874;7.028;2023-02-04T00:18:28;102807.84;;;8.07;84.73
71504;BME280;59323;50.874;7.028;2023-02-04T00:20:54;102818.66;;;8.07;84.76
71504;BME280;59323;50.874;7.028;2023-02-04T00:23:19;102816.63;;;7.99;85.38
71504;BME280;59323;50.874;7.028;2023-02-04T00:25:44;102818.75;;;8.02;85.17
71504;BME280;59323;50.874;7.028;2023-02-04T00:28:10;102805.22;;;8.02;84.92
71504;BME280;59323;50.874;7.028;2023-02-04T00:30:35;102811.72;;;8.01;84.85
71504;BME280;59323;50.874;7.028;2023-02-04T00:33:01;102811.44;;;8.03;84.71
71504;BME280;59323;50.874;7.028;2023-02-04T00:35:26;102817.44;;;8.00;84.81
71504;BME280;59323;50.874;7.028;2023-02-04T00:37:52;102812.69;;;7.91;85.74
71504;BME280;59323;50.874;7.028;2023-02-04T00:40:17;102831.56;;;7.97;84.78
71504;BME280;59323;50.874;7.028;2023-02-04T00:42:43;102831.50;;;8.02;84.75
71504;BME280;59323;50.874;7.028;2023-02-04T00:45:09;102832.28;;;8.02;84.58
71504;BME280;59323;50.874;7.028;2023-02-04T00:47:35;102834.50;;;8.00;85.08
71504;BME280;59323;50.874;7.028;2023-02-04T00:50:00;102816.81;;;7.89;85.38
71504;BME280;59323;50.874;7.028;2023-02-04T00:52:26;102824.91;;;7.89;85.37
71504;BME280;59323;50.874;7.028;2023-02-04T00:54:51;102836.78;;;7.93;85.09
71504;BME280;59323;50.874;7.028;2023-02-04T00:57:17;102840.66;;;7.87;85.38
71504;BME280;59323;50.874;7.028;2023-02-04T00:59:43;102838.03;;;7.82;85.96
71504;BME280;59323;50.874;7.028;2023-02-04T01:02:09;102838.31;;;7.80;85.88
71504;BME280;59323;50.874;7.028;2023-02-04T01:04:34;102837.22;;;7.81;85.80
71504;BME280;59323;50.874;7.028;2023-02-04T01:06:59;102839.69;;;7.78;85.93
71504;BME280;59323;50.874;7.028;2023-02-04T01:09:25;102851.97;;;7.70;86.52
71504;BME280;59323;50.874;7.028;2023-02-04T01:11:50;102845.84;;;7.83;85.74
71504;BME280;59323;50.874;7.028;2023-02-04T01:14:15;102840.78;;;7.77;86.10
71504;BME280;59323;50.874;7.028;2023-02-04T01:16:41;102849.25;;;7.70;86.41
71504;BME280;59323;50.874;7.028;2023-02-04T01:19:06;102849.19;;;7.75;85.95
71504;BME280;59323;50.874;7.028;2023-02-04T01:21:32;102860.31;;;7.74;86.12
71504;BME280;59323;50.874;7.028;2023-02-04T01:23:57;102865.19;;;7.72;86.10
71504;BME280;59323;50.874;7.028;2023-02-04T01:26:22;102876.03;;;7.72;86.55
71504;BME280;59323;50.874;7.028;2023-02-04T01:28:48;102867.69;;;7.68;86.53
71504;BME280;59323;50.874;7.028;2023-02-04T01:31:14;102874.50;;;7.66;86.88
71504;BME280;59323;50.874;7.028;2023-02-04T01:33:40;102871.72;;;7.71;86.38
71504;BME280;59323;50.874;7.028;2023-02-04T01:36:06;102859.34;;;7.64;86.98
71504;BME280;59323;50.874;7.028;2023-02-04T01:38:31;102869.59;;;7.68;86.89
71504;BME280;59323;50.874;7.028;2023-02-04T01:40:57;102863.75;;;7.60;87.02
71504;BME280;59323;50.874;7.028;2023-02-04T01:43:23;102878.88;;;7.61;86.84
71504;BME280;59323;50.874;7.028;2023-02-04T01:45:49;102880.34;;;7.54;87.36
71504;BME280;59323;50.874;7.028;2023-02-04T01:48:16;102874.69;;;7.50;87.84
71504;BME280;59323;50.874;7.028;2023-02-04T01:51:04;102881.13;;;7.54;87.53
71504;BME280;59323;50.874;7.028;2023-02-04T01:53:30;102876.81;;;7.53;87.46
71504;BME280;59323;50.874;7.028;2023-02-04T01:55:56;102887.94;;;7.52;88.03
71504;BME280;59323;50.874;7.028;2023-02-04T01:58:22;102890.94;;;7.50;88.14
71504;BME280;59323;50.874;7.028;2023-02-04T02:00:47;102893.28;;;7.57;87.55
71504;BME280;59323;50.874;7.028;2023-02-04T02:03:13;102890.94;;;7.50;87.76
71504;BME280;59323;50.874;7.028;2023-02-04T02:05:50;102900.13;;;7.49;87.80
71504;BME280;59323;50.874;7.028;2023-02-04T02:08:16;102902.03;;;7.49;87.96
71504;BME280;59323;50.874;7.028;2023-02-04T02:10:44;102906.72;;;7.43;88.15
71504;BME280;59323;50.874;7.028;2023-02-04T02:13:14;102907.50;;;7.44;88.32
71504;BME280;59323;50.874;7.028;2023-02-04T02:15:40;102907.50;;;7.44;88.17
71504;BME280;59323;50.874;7.028;2023-02-04T02:18:07;102912.69;;;7.40;88.15
71504;BME280;59323;50.874;7.028;2023-02-04T02:20:32;102904.06;;;7.38;88.21
71504;BME280;59323;50.874;7.028;2023-02-04T02:26:12;102906.25;;;7.36;88.48
71504;BME280;59323;50.874;7.028;2023-02-04T02:28:37;102914.88;;;7.38;88.43
71504;BME280;59323;50.874;7.028;2023-02-04T02:31:03;102915.34;;;7.45;87.71
71504;BME280;59323;50.874;7.028;2023-02-04T02:33:28;102925.94;;;7.42;88.13
71504;BME280;59323;50.874;7.028;2023-02-04T02:35:54;102913.50;;;7.41;88.02
71504;BME280;59323;50.874;7.028;2023-02-04T02:38:19;102921.31;;;7.42;87.93
71504;BME280;59323;50.874;7.028;2023-02-04T02:40:46;102923.53;;;7.40;nan
71504;BME280;59323;50.874;7.028;2023-02-04T02:43:16;102925.19;;;7.36;88.09
71504;BME280;59323;50.874;7.028;2023-02-04T02:45:42;102923.56;;;7.35;88.24
71504;BME280;59323;50.874;7.028;2023-02-04T02:48:09;102923.06;;;7.33;89.26
71504;BME280;59323;50.874;7.028;2023-02-04T02:50:35;102930.81;;;7.40;88.44
71504;BME280;59323;50.874;7.028;2023-02-04T02:53:01;102932.72;;;7.39;88.55
71504;BME280;59323;50.874;7.028;2023-02-04T02:55:28;102925.75;;;7.33;88.88
71504;BME280;59323;50.874;7.028;2023-02-04T02:57:55;102924.09;;;7.37;88.71
71504;BME280;59323;50.874;7.028;2023-02-04T03:00:22;102926.06;;;7.31;88.53
71504;BME280;59323;50.874;7.028;2023-02-04T03:05:25;102929.69;;;7.22;89.48
71504;BME280;59323;50.874;7.028;2023-02-04T03:07:51;102936.13;;;7.26;89.20
71504;BME280;59323;50.874;7.028;2023-02-04T03:10:17;102947.28;;;7.19;89.37
71504;BME280;59323;50.874;7.028;2023-02-04T03:12:43;102944.28;;;7.21;89.36
71504;BME280;59323;50.874;7.028;2023-02-04T03:15:09;102953.25;;;7.16;89.72
71504;BME280;59323;50.874;7.028;2023-02-04T03:17:35;102947.00;;;7.21;89.57
71504;BME280;59323;50.874;7.028;2023-02-04T03:20:02;102947.56;;;7.18;89.86
71504;BME280;59323;50.874;7.028;2023-02-04T03:22:27;102943.78;;;7.14;90.15
71504;BME280;59323;50.874;7.028;2023-02-04T03:24:53;102944.06;;;7.17;89.49
71504;BME280;59323;50.874;7.028;2023-02-04T03:27:18;102949.69;;;7.21;89.39
71504;BME280;59323;50.874;7.028;2023-02-04T03:29:44;102955.84;;;7.26;88.58
71504;BME280;59323;50.874;7.028;2023-02-04T03:32:10;102966.72;;;7.21;89.38
71504;BME280;59323;50.874;7.028;2023-02-04T03:34:36;102959.19;;;7.18;89.31
71504;BME280;59323;50.874;7.028;2023-02-04T03:37:01;102965.41;;;7.19;89.15
71504;BME280;59323;50.874;7.028;2023-02-04T03:39:26;102969.47;;;7.16;89.26
71504;BME280;59323;50.874;7.028;2023-02-04T03:41:52;102976.25;;;7.14;89.32
71504;BME280;59323;50.874;7.028;2023-02-04T03:44:17;102973.00;;;7.12;89.77
71504;BME280;59323;50.874;7.028;2023-02-04T03:46:43;102962.19;;;7.17;89.14
71504;BME280;59323;50.874;7.028;2023-02-04T03:49:09;102971.34;;;7.21;88.72
71504;BME280;59323;50.874;7.028;2023-02-04T03:51:34;102973.81;;;7.17;88.82
71504;BME280;59323;50.874;7.028;2023-02-04T03:53:59;102973.19;;;7.25;88.58
71504;BME280;59323;50.874;7.028;2023-02-04T03:56:25;102972.66;;;7.23;88.70
71504;BME280;59323;50.874;7.028;2023-02-04T03:58:50;102970.28;;;7.17;89.30
71504;BME280;59323;50.874;7.028;2023-02-04T04:01:15;102976.53;;;7.12;89.27
71504;BME280;59323;50.874;7.028;2023-02-04T04:03:41;102987.91;;;7.09;89.32
71504;BME280;59323;50.874;7.028;2023-02-04T04:06:06;102990.56;;;7.14;89.48
71504;BME280;59323;50.874;7.028;2023-02-04T04:08:34;102982.50;;;7.09;89.94
71504;BME280;59323;50.874;7.028;2023-02-04T04:11:02;102985.53;;;7.03;90.06
71504;BME280;59323;50.874;7.028;2023-02-04T04:13:28;102977.72;;;7.01;90.48
71504;BME280;59323;50.874;7.028;2023-02-04T04:15:53;102987.63;;;7.11;89.60
71504;BME280;59323;50.874;7.028;2023-02-04T04:18:18;102991.66;;;7.13;89.35
71504;BME280;59323;50.874;7.028;2023-02-04T04:20:44;102994.69;;;7.07;90.37
71504;BME280;59323;50.874;7.028;2023-02-04T04:23:09;102989.28;;;7.07;90.11
71504;BME280;59323;50.874;7.028;2023-02-04T04:25:35;102983.81;;;7.12;89.44
71504;BME280;59323;50.874;7.028;2023-02-04T04:28:00;102989.00;;;7.08;90.19
71504;BME280;59323;50.874;7.028;2023-02-04T04:30:25;102991.72;;;7.08;89.60
71504;BME280;59323;50.874;7.028;2023-02-04T04:32:50;102991.19;;;7.06;90.19
71504;BME280;59323;50.874;7.028;2023-02-04T04:35:16;102988.25;;;7.03;90.09
71504;BME280;59323;50.874;7.028;2023-02-04T04:37:41;102991.22;;;7.01;90.53
71504;BME280;59323;50.874;7.028;2023-02-04T04:40:09;103001.81;;;6.97;90.88
71504;BME280;59323;50.874;7.028;2023-02-04T04:42:35;103001.28;;;6.95;91.27
71504;BME280;59323;50.874;7.028;2023-02-04T04:45:00;103005.03;;;6.99;91.16
71504;BME280;59323;50.874;7.028;2023-02-04T04:47:26;103008.88;;;6.93;91.50
71504;BME280;59323;50.874;7.028;2023-02-04T04:49:51;103004.59;;;6.87;92.07
71504;BME280;59323;50.874;7.028;2023-02-04T04:52:16;103015.41;;;6.87;93.19
71504;BME280;59323;50.874;7.028;2023-02-04T04:54:42;103029.72;;;6.88;93.69
71504;BME280;59323;50.874;7.028;2023-02-04T04:57:07;103034.38;;;6.82;94.27
71504;BME280;59323;50.874;7.028;2023-02-04T04:59:32;103029.78;;;6.83;94.67
71504;BME280;59323;50.874;7.028;2023-02-04T05:01:57;103030.34;;;6.80;94.36
71504;BME280;59323;50.874;7.028;2023-02-04T05:04:23;103033.03;;;6.80;95.02
71504;BME280;59323;50.874;7.028;2023-02-04T05:06:48;103038.69;;;6.83;94.71
71504;BME280;59323;50.874;7.028;2023-02-04T05:09:13;103034.69;;;6.76;94.84
71504;BME280;59323;50.874;7.028;2023-02-04T05:11:40;103031.47;;;6.74;95.23
71504;BME280;59323;50.874;7.028;2023-02-04T05:14:06;103038.75;;;6.73;94.82
71504;BME280;59323;50.874;7.028;2023-02-04T05:16:31;103036.63;;;6.70;94.71
71504;BME280;59323;50.874;7.028;2023-02-04T05:18:56;103042.03;;;6.70;94.65
71504;BME280;59323;50.874;7.028;2023-02-04T05:21:22;103036.31;;;6.77;95.22
71504;BME280;59323;50.874;7.028;2023-02-04T05:23:47;103034.16;;;6.74;95.40
71504;BME280;59323;50.874;7.028;2023-02-04T05:26:12;103039.59;;;6.68;95.05
71504;BME280;59323;50.874;7.028;2023-02-04T05:28:38;103037.47;;;6.65;95.46
71504;BME280;59323;50.874;7.028;2023-02-04T05:31:03;103047.47;;;6.65;95.42
71504;BME280;59323;50.874;7.028;2023-02-04T05:33:28;103052.59;;;6.66;95.14
71504;BME280;59323;50.874;7.028;2023-02-04T05:35:54;103054.19;;;6.67;94.77
71504;BME280;59323;50.874;7.028;2023-02-04T05:38:19;103064.97;;;6.73;93.86
71504;BME280;59323;50.874;7.028;2023-02-04T05:40:44;103057.44;;;6.70;94.43
71504;BME280;59323;50.874;7.028;2023-02-04T05:43:10;103054.44;;;6.71;94.65
71504;BME280;59323;50.874;7.028;2023-02-04T05:45:35;103060.13;;;6.70;93.64
71504;BME280;59323;50.874;7.028;2023-02-04T05:48:01;103067.41;;;6.74;94.15
71504;BME280;59323;50.874;7.028;2023-02-04T05:50:26;103070.34;;;6.78;93.35
71504;BME280;59323;50.874;7.028;2023-02-04T05:52:51;103074.13;;;6.77;93.34
71504;BME280;59323;50.874;7.028;2023-02-04T05:55:17;103085.25;;;6.70;93.57
71504;BME280;59323;50.874;7.028;2023-02-04T05:57:42;103082.31;;;6.66;94.00
71504;BME280;59323;50.874;7.028;2023-02-04T06:00:08;103081.78;;;6.64;94.09
71504;BME280;59323;50.874;7.028;2023-02-04T06:02:35;103083.13;;;6.67;93.97
71504;BME280;59323;50.874;7.028;2023-02-04T06:05:00;103089.56;;;6.71;94.02
71504;BME280;59323;50.874;7.028;2023-02-04T06:07:25;103097.72;;;6.66;94.02
71504;BME280;59323;50.874;7.028;2023-02-04T06:09:51;103096.66;;;6.62;94.37
71504;BME280;59323;50.874;7.028;2023-02-04T06:12:16;103097.50;;;6.57;95.07
71504;BME280;59323;50.874;7.028;2023-02-04T06:14:41;103096.97;;;6.55;94.66
71504;BME280;59323;50.874;7.028;2023-02-04T06:17:07;103098.03;;;6.54;95.51
71504;BME280;59323;50.874;7.028;2023-02-04T06:19:32;103106.94;;;6.60;95.27
71504;BME280;59323;50.874;7.028;2023-02-04T06:21:57;103111.81;;;6.58;95.14
71504;BME280;59323;50.874;7.028;2023-02-04T06:24:23;103112.88;;;6.57;94.73
71504;BME280;59323;50.874;7.028;2023-02-04T06:26:48;103114.78;;;6.56;94.58
71504;BME280;59323;50.874;7.028;2023-02-04T06:29:13;103111.81;;;6.53;95.91
71504;BME280;59323;50.874;7.028;2023-02-04T06:31:38;103109.13;;;6.48;95.83
71504;BME280;59323;50.874;7.028;2023-02-04T06:34:04;103120.22;;;6.46;95.36
71504;BME280;59323;50.874;7.028;2023-02-04T06:36:30;103116.16;;;6.44;95.50
71504;BME280;59323;50.874;7.028;2023-02-04T06:38:55;103126.69;;;6.45;95.88
71504;BME280;59323;50.874;7.028;2023-02-04T06:41:21;103124.28;;;6.44;95.80
71504;BME280;59323;50.874;7.028;2023-02-04T06:43:47;103128.31;;;6.46;95.69
71504;BME280;59323;50.874;7.028;2023-02-04T06:46:12;103121.00;;;6.47;95.30
71504;BME280;59323;50.874;7.028;2023-02-04T06:48:37;103126.69;;;6.45;95.66
71504;BME280;59323;50.874;7.028;2023-02-04T06:51:03;103129.13;;;6.42;95.67
71504;BME280;59323;50.874;7.028;2023-02-04T06:53:28;103121.84;;;6.42;95.84
71504;BME280;59323;50.874;7.028;2023-02-04T06:55:53;103128.34;;;6.41;96.34
71504;BME280;59323;50.874;7.028;2023-02-04T06:58:19;103127.53;;;6.41;96.03
71504;BME280;59323;50.874;7.028;2023-02-04T07:00:44;103123.22;;;6.40;96.29
71504;BME280;59323;50.874;7.028;2023-02-04T07:03:10;103124.84;;;6.35;96.02
71504;BME280;59323;50.874;7.028;2023-02-04T07:05:35;103126.75;;;6.35;96.28
71504;BME280;59323;50.874;7.028;2023-02-04T07:08:01;103135.13;;;6.33;96.81
71504;BME280;59323;50.874;7.028;2023-02-04T07:10:26;103132.97;;;6.30;96.53
71504;BME280;59323;50.874;7.028;2023-02-04T07:12:51;103132.16;;;6.30;96.74
71504;BME280;59323;50.874;7.028;2023-02-04T07:15:17;103134.84;;;6.30;96.67
71504;BME280;59323;50.874;7.028;2023-02-04T07:17:42;103142.16;;;6.29;96.70
71504;BME280;59323;50.874;7.028;2023-02-04T07:20:09;103143.25;;;6.28;96.46
71504;BME280;59323;50.874;7.028;2023-02-04T07:22:34;103142.44;;;6.28;96.81
71504;BME280;59323;50.874;7.028;2023-02-04T07:25:00;103136.78;;;6.24;96.89
71504;BME280;59323;50.874;7.028;2023-02-04T07:27:25;103144.59;;;6.26;97.22
71504;BME280;59323;50.874;7.028;2023-02-04T07:29:50;103154.06;;;6.23;96.75
71504;BME280;59323;50.874;7.028;2023-02-04T07:32:16;103158.91;;;6.26;96.88
71504;BME280;59323;50.874;7.028;2023-02-04T07:34:41;103161.06;;;6.24;97.21
71504;BME280;59323;50.874;7.028;2023-02-04T07:37:06;103163.78;;;6.24;97.40
71504;BME280;59323;50.874;7.028;2023-02-04T07:39:32;103167.00;;;6.26;97.25
71504;BME280;59323;50.874;7.028;2023-02-04T07:41:57;103165.66;;;6.24;97.30
71504;BME280;59323;50.874;7.028;2023-02-04T07:44:22;103172.69;;;6.25;97.13
71504;BME280;59323;50.874;7.028;2023-02-04T07:46:48;103181.31;;;6.27;97.07
71504;BME280;59323;50.874;7.028;2023-02-04T07:49:13;103182.41;;;6.26;96.84
71504;BME280;59323;50.874;7.028;2023-02-04T07:51:38;103186.44;;;6.28;97.90
71504;BME280;59323;50.874;7.028;2023-02-04T07:54:03;103194.25;;;6.30;97.16
71504;BME280;59323;50.874;7.028;2023-02-04T07:56:29;103195.06;;;6.30;97.37
71504;BME280;59323;50.874;7.028;2023-02-04T07:58:58;103192.91;;;6.32;97.36
71504;BME280;59323;50.874;7.028;2023-02-04T08:01:23;103191.81;;;6.33;97.25
71504;BME280;59323;50.874;7.028;2023-02-04T08:03:49;103188.03;;;6.34;97.39
71504;BME280;59323;50.874;7.028;2023-02-04T08:06:14;103193.44;;;6.34;97.75
71504;BME280;59323;50.874;7.028;2023-02-04T08:08:39;103192.63;;;6.34;97.69
71504;BME280;59323;50.874;7.028;2023-02-04T08:11:05;103198.56;;;6.36;97.54
71504;BME280;59323;50.874;7.028;2023-02-04T08:13:30;103207.19;;;6.38;97.17
71504;BME280;59323;50.874;7.028;2023-02-04T08:15:56;103208.00;;;6.39;97.15
71504;BME280;59323;50.874;7.028;2023-02-04T08:18:21;103208.81;;;6.39;97.67
71504;BME280;59323;50.874;7.028;2023-02-04T08:20:48;103200.72;;;6.39;97.22
71504;BME280;59323;50.874;7.028;2023-02-04T08:23:13;103203.13;;;6.41;97.43
71504;BME280;59323;50.874;7.028;2023-02-04T08:25:38;103202.31;;;6.50;97.72
71504;BME280;59323;50.874;7.028;2023-02-04T08:28:04;103208.78;;;6.49;97.50
71504;BME280;59323;50.874;7.028;2023-02-04T08:30:29;103207.72;;;6.50;97.99
71504;BME280;59323;50.874;7.028;2023-02-04T08:32:54;103210.16;;;6.52;97.39
71504;BME280;59323;50.874;7.028;2023-02-04T08:35:20;103216.91;;;6.54;97.97
71504;BME280;59323;50.874;7.028;2023-02-04T08:37:45;103221.16;;;6.65;97.54
71504;BME280;59323;50.874;7.028;2023-02-04T08:40:11;103224.66;;;6.71;96.85
71504;BME280;59323;50.874;7.028;2023-02-04T08:42:36;103233.31;;;6.73;97.35
71504;BME280;59323;50.874;7.028;2023-02-04T08:45:02;103222.75;;;6.77;97.14
71504;BME280;59323;50.874;7.028;2023-02-04T08:47:28;103230.56;;;6.78;97.66
71504;BME280;59323;50.874;7.028;2023-02-04T08:49:53;103226.22;;;6.82;96.89
71504;BME280;59323;50.874;7.028;2023-02-04T08:52:18;103231.34;;;6.89;96.32
71504;BME280;59323;50.874;7.028;2023-02-04T08:54:44;103233.72;;;6.95;95.99
71504;BME280;59323;50.874;7.028;2023-02-04T08:57:09;103231.00;;;7.00;95.34
71504;BME280;59323;50.874;7.028;2023-02-04T08:59:34;103232.34;;;7.03;95.20
71504;BME280;59323;50.874;7.028;2023-02-04T09:02:00;103239.91;;;7.06;95.38
71504;BME280;59323;50.874;7.028;2023-02-04T09:04:27;103245.56;;;7.10;95.50
71504;BME280;59323;50.874;7.028;2023-02-04T09:06:53;103244.75;;;7.09;95.69
71504;BME280;59323;50.874;7.028;2023-02-04T09:09:18;103243.66;;;7.10;95.07
71504;BME280;59323;50.874;7.028;2023-02-04T09:11:44;103256.09;;;7.11;95.07
71504;BME280;59323;50.874;7.028;2023-02-04T09:14:09;103254.72;;;7.14;94.86
71504;BME280;59323;50.874;7.028;2023-02-04T09:16:35;103250.66;;;7.21;94.10
71504;BME280;59323;50.874;7.028;2023-02-04T09:19:00;103261.72;;;7.25;93.91
71504;BME280;59323;50.874;7.028;2023-02-04T09:21:27;103264.69;;;7.23;93.77
71504;BME280;59323;50.874;7.028;2023-02-04T09:23:53;103273.34;;;7.25;94.15
71504;BME280;59323;50.874;7.028;2023-02-04T09:26:19;103267.38;;;7.28;94.08
71504;BME280;59323;50.874;7.028;2023-02-04T09:28:44;103271.09;;;7.38;93.50
71504;BME280;59323;50.874;7.028;2023-02-04T09:31:09;103268.09;;;7.44;93.03
71504;BME280;59323;50.874;7.028;2023-02-04T09:33:36;103269.41;;;7.52;91.39
71504;BME280;59323;50.874;7.028;2023-02-04T09:36:02;103269.91;;;7.54;91.85
71504;BME280;59323;50.874;7.028;2023-02-04T09:38:27;103270.97;;;7.58;91.27
71504;BME280;59323;50.874;7.028;2023-02-04T09:40:55;103274.44;;;7.63;92.25
71504;BME280;59323;50.874;7.028;2023-02-04T09:43:26;103279.81;;;7.69;92.17
71504;BME280;59323;50.874;7.028;2023-02-04T09:45:53;103293.03;;;7.75;91.59
71504;BME280;59323;50.874;7.028;2023-02-04T09:48:18;103287.84;;;7.84;90.12
71504;BME280;59323;50.874;7.028;2023-02-04T09:50:45;103292.19;;;7.85;89.72
71504;BME280;59323;50.874;7.028;2023-02-04T09:53:14;103298.94;;;7.87;89.82
71504;BME280;59323;50.874;7.028;2023-02-04T09:55:44;103300.25;;;7.90;89.85
71504;BME280;59323;50.874;7.028;2023-02-04T09:58:14;103293.78;;;7.86;89.94
71504;BME280;59323;50.874;7.028;2023-02-04T10:00:45;103304.88;;;7.89;90.24
71504;BME280;59323;50.874;7.028;2023-02-04T10:03:14;103297.78;;;7.93;89.93
71504;BME280;59323;50.874;7.028;2023-02-04T10:05:41;103305.63;;;7.95;90.66
71504;BME280;59323;50.874;7.028;2023-02-04T10:08:12;103303.41;;;8.02;90.30
71504;BME280;59323;50.874;7.028;2023-02-04T10:10:38;103310.13;;;8.10;90.37
71504;BME280;59323;50.874;7.028;2023-02-04T10:13:04;103307.59;;;8.18;88.36
71504;BME280;59323;50.874;7.028;2023-02-04T10:15:29;103312.44;;;8.21;88.40
71504;BME280;59323;50.874;7.028;2023-02-04T10:18:02;103310.78;;;8.25;87.90
71504;BME280;59323;50.874;7.028;2023-02-04T10:20:31;103306.16;;;8.26;86.84
71504;BME280;59323;50.874;7.028;2023-02-04T10:22:57;103313.50;;;8.25;89.17
71504;BME280;59323;50.874;7.028;2023-02-04T10:25:24;103323.53;;;8.25;88.83
71504;BME280;59323;50.874;7.028;2023-02-04T10:27:57;103323.22;;;8.26;88.13
71504;BME280;59323;50.874;7.028;2023-02-04T10:30:36;103320.75;;;8.30;87.96
71504;BME280;59323;50.874;7.028;2023-02-04T10:33:37;103309.66;;;8.32;88.51
71504;BME280;59323;50.874;7.028;2023-02-04T10:36:04;103306.63;;;8.38;86.47
71504;BME280;59323;50.874;7.028;2023-02-04T10:38:30;103316.38;;;8.39;87.49
71504;BME280;59323;50.874;7.028;2023-02-04T10:41:03;103307.16;;;8.40;85.94
71504;BME280;59323;50.874;7.028;2023-02-04T10:43:30;103301.97;;;8.44;86.57
71504;BME280;59323;50.874;7.028;2023-02-04T10:46:02;103307.13;;;8.45;87.13
71504;BME280;59323;50.874;7.028;2023-02-04T10:48:27;103300.28;;;8.53;85.40
71504;BME280;59323;50.874;7.028;2023-02-04T10:50:55;103304.09;;;8.52;86.17
71504;BME280;59323;50.874;7.028;2023-02-04T10:53:22;103310.03;;;8.54;87.05
71504;BME280;59323;50.874;7.028;2023-02-04T10:56:15;103306.69;;;8.62;87.04
71504;BME280;59323;50.874;7.028;2023-02-04T10:58:42;103303.09;;;8.67;87.02
71504;BME280;59323;50.874;7.028;2023-02-04T11:01:11;103310.31;;;8.76;84.33
71504;BME280;59323;50.874;7.028;2023-02-04T11:03:39;103305.41;;;8.78;85.41
71504;BME280;59323;50.874;7.028;2023-02-04T11:06:13;103295.91;;;8.81;85.80
71504;BME280;59323;50.874;7.028;2023-02-04T11:08:40;103312.34;;;8.89;84.55
71504;BME280;59323;50.874;7.028;2023-02-04T11:11:24;103302.81;;;8.92;83.84
71504;BME280;59323;50.874;7.028;2023-02-04T11:16:33;103303.91;;;8.91;83.42
71504;BME280;59323;50.874;7.028;2023-02-04T11:19:11;103300.09;;;8.92;83.47
71504;BME280;59323;50.874;7.028;2023-02-04T11:39:38;103307.50;;;9.10;82.69
71504;BME280;59323;50.874;7.028;2023-02-04T11:42:09;103308.81;;;9.13;82.76
71504;BME280;59323;50.874;7.028;2023-02-04T11:44:39;103302.28;;;9.14;82.97
71504;BME280;59323;50.874;7.028;2023-02-04T11:47:07;103300.31;;;9.19;81.16
71504;BME280;59323;50.874;7.028;2023-02-04T11:49:35;103301.34;;;9.24;80.37
71504;BME280;59323;50.874;7.028;2023-02-04T11:52:12;103296.38;;;9.31;79.75
71504;BME280;59323;50.874;7.028;2023-02-04T11:54:37;103299.88;;;9.31;79.30
71504;BME280;59323;50.874;7.028;2023-02-04T11:57:03;103305.53;;;9.35;81.44
71504;BME280;59323;50.874;7.028;2023-02-04T11:59:29;103303.25;;;9.42;79.76
71504;BME280;59323;50.874;7.028;2023-02-04T12:02:17;103304.59;;;9.44;80.61
71504;BME280;59323;50.874;7.028;2023-02-04T12:05:07;103308.03;;;9.50;78.60
71504;BME280;59323;50.874;7.028;2023-02-04T12:07:33;103311.34;;;9.47;79.97
71504;BME280;59323;50.874;7.028;2023-02-04T12:10:14;103315.44;;;9.44;78.35
71504;BME280;59323;50.874;7.028;2023-02-04T12:12:52;103309.28;;;9.39;80.54
71504;BME280;59323;50.874;7.028;2023-02-04T12:15:24;103313.69;;;9.35;80.16
71504;BME280;59323;50.874;7.028;2023-02-04T12:18:01;103311.47;;;9.37;78.07
71504;BME280;59323;50.874;7.028;2023-02-04T12:20:27;103316.31;;;9.40;80.30
71504;BME280;59323;50.874;7.028;2023-02-04T12:22:52;103320.34;;;9.42;81.68
71504;BME280;59323;50.874;7.028;2023-02-04T12:25:18;103315.16;;;9.46;79.81
71504;BME280;59323;50.874;7.028;2023-02-04T12:27:44;103310.81;;;9.45;77.16
71504;BME280;59323;50.874;7.028;2023-02-04T12:30:10;103315.44;;;9.44;77.95
71504;BME280;59323;50.874;7.028;2023-02-04T12:32:36;103307.38;;;9.39;78.10
71504;BME280;59323;50.874;7.028;2023-02-04T12:35:02;103308.19;;;9.40;78.11
71504;BME280;59323;50.874;7.028;2023-02-04T12:37:27;103312.94;;;9.48;75.97
71504;BME280;59323;50.874;7.028;2023-02-04T12:39:52;103311.09;;;9.43;76.30
71504;BME280;59323;50.874;7.028;2023-02-04T12:42:18;103303.03;;;9.38;77.36
71504;BME280;59323;50.874;7.028;2023-02-04T12:44:43;103311.78;;;9.35;79.21
71504;BME280;59323;50.874;7.028;2023-02-04T12:47:08;103304.13;;;9.37;78.89
71504;BME280;59323;50.874;7.028;2023-02-04T12:49:34;103314.94;;;9.42;79.19
71504;BME280;59323;50.874;7.028;2023-02-04T12:51:59;103310.22;;;9.48;77.57
71504;BME280;59323;50.874;7.028;2023-02-04T12:54:26;103309.94;;;9.49;76.83
71504;BME280;59323;50.874;7.028;2023-02-04T12:56:51;103311.03;;;9.48;76.51
71504;BME280;59323;50.874;7.028;2023-02-04T12:59:18;103309.88;;;9.54;73.62
71504;BME280;59323;50.874;7.028;2023-02-04T13:01:43;103308.69;;;9.61;72.57
71504;BME280;59323;50.874;7.028;2023-02-04T13:04:08;103309.50;;;9.61;72.57
71504;BME280;59323;50.874;7.028;2023-02-04T13:06:33;103312.78;;;9.58;72.72
71504;BME280;59323;50.874;7.028;2023-02-04T13:08:59;103312.66;;;9.49;74.67
71504;BME280;59323;50.874;7.028;2023-02-04T13:11:24;103312.66;;;9.49;73.79
71504;BME280;59323;50.874;7.028;2023-02-04T13:13:50;103306.13;;;9.50;74.67
71504;BME280;59323;50.874;7.028;2023-02-04T13:16:15;103301.00;;;9.49;75.46
71504;BME280;59323;50.874;7.028;2023-02-04T13:18:43;103307.16;;;9.54;75.71
71504;BME280;59323;50.874;7.028;2023-02-04T13:21:08;103304.66;;;9.58;75.86
71504;BME280;59323;50.874;7.028;2023-02-04T13:23:34;103303.25;;;9.61;73.90